createdAt,value
2023-02-11T00:02:34.548Z,102478.50
2023-02-11T00:05:36.236Z,102480.87
2023-02-11T00:08:38.878Z,102479.31
2023-02-11T00:11:40.582Z,102484.16
2023-02-11T00:14:42.228Z,102471.00
2023-02-11T00:17:43.939Z,102470.75
2023-02-11T00:20:45.584Z,102472.25
2023-02-11T00:23:47.748Z,102474.09
2023-02-11T00:26:49.364Z,102464.91
2023-02-11T00:29:51.022Z,102474.78
2023-02-11T00:32:52.698Z,102470.97
2023-02-11T00:35:54.361Z,102465.16
2023-02-11T00:38:57.410Z,102464.41
2023-02-11T00:41:59.073Z,102464.66
2023-02-11T00:45:00.714Z,102456.16
2023-02-11T00:48:02.363Z,102449.97
2023-02-11T00:51:04.353Z,102448.91
2023-02-11T00:54:06.866Z,102440.28
2023-02-11T00:57:08.549Z,102445.75
2023-02-11T01:00:12.857Z,102445.97
2023-02-11T01:03:14.566Z,102451.06
2023-02-11T01:06:16.528Z,102455.12
2023-02-11T01:09:18.335Z,102454.72
2023-02-11T01:12:20.213Z,102444.94
2023-02-11T01:15:22.339Z,102439.53
2023-02-11T01:18:24.849Z,102432.69
2023-02-11T01:21:26.511Z,102430.53
2023-02-11T01:24:28.282Z,102419.25
2023-02-11T01:27:29.938Z,102415.66
2023-02-11T01:30:31.655Z,102410.22
2023-02-11T01:33:33.335Z,102402.69
2023-02-11T01:36:34.979Z,102398.38
2023-02-11T01:39:37.155Z,102396.47
2023-02-11T01:42:39.158Z,102395.03
2023-02-11T01:45:49.996Z,102400.25
2023-02-11T01:49:07.353Z,102398.00
2023-02-11T01:52:20.140Z,102400.25
2023-02-11T01:55:40.370Z,102394.03
2023-02-11T01:58:44.525Z,102389.09
2023-02-11T02:01:52.122Z,102386.47
2023-02-11T02:05:02.701Z,102386.66
2023-02-11T02:08:17.520Z,102385.91
2023-02-11T02:11:19.217Z,102386.53
2023-02-11T02:14:20.931Z,102386.03
2023-02-11T02:17:38.500Z,102392.37
2023-02-11T02:21:13.734Z,102401.06
2023-02-11T02:24:27.217Z,102400.25
2023-02-11T02:27:28.828Z,102388.00
2023-02-11T02:30:36.166Z,102388.19
2023-02-11T02:33:47.836Z,102388.31
2023-02-11T02:37:04.618Z,102385.44
2023-02-11T02:40:22.774Z,102390.84
2023-02-11T02:43:27.138Z,102388.78
2023-02-11T02:46:33.942Z,102387.62
2023-02-11T02:49:35.646Z,102375.53
2023-02-11T02:52:55.273Z,102387.44
2023-02-11T02:56:15.070Z,102376.59
2023-02-11T02:59:19.792Z,102376.81
2023-02-11T03:02:22.151Z,102370.91
2023-02-11T03:05:31.426Z,102369.19
2023-02-11T03:08:40.746Z,102368.63
2023-02-11T03:11:42.463Z,102369.41
2023-02-11T03:14:45.390Z,102363.53
2023-02-11T03:17:51.277Z,102372.31
2023-02-11T03:20:54.974Z,102370.97
2023-02-11T03:24:07.870Z,102364.72
2023-02-11T03:27:21.129Z,102368.53
2023-02-11T03:30:30.297Z,102371.81
2023-02-11T03:33:47.945Z,102375.53
2023-02-11T03:37:00.442Z,102367.47
2023-02-11T03:40:13.084Z,102356.97
2023-02-11T03:43:22.858Z,102355.56
2023-02-11T03:46:32.193Z,102354.25
2023-02-11T03:49:36.450Z,102349.03
2023-02-11T03:52:38.771Z,102345.78
2023-02-11T03:55:42.455Z,102343.19
2023-02-11T03:58:48.499Z,102326.75
2023-02-11T04:01:50.229Z,102327.59
2023-02-11T04:04:51.905Z,102315.69
2023-02-11T04:07:53.596Z,102313.22
2023-02-11T04:10:55.220Z,102310.25
2023-02-11T04:13:56.900Z,102312.38
2023-02-11T04:16:58.593Z,102305.94
2023-02-11T04:20:00.226Z,102298.03
2023-02-11T04:23:01.882Z,102297.41
2023-02-11T04:26:03.836Z,102288.41
2023-02-11T04:29:05.534Z,102281.88
2023-02-11T04:32:07.335Z,102276.56
2023-02-11T04:35:09.061Z,102267.72
2023-02-11T04:38:10.722Z,102267.53
2023-02-11T04:41:12.380Z,102263.50
2023-02-11T04:44:14.085Z,102259.41
2023-02-11T04:47:15.933Z,102265.09
2023-02-11T04:50:17.707Z,102264.31
2023-02-11T04:53:19.411Z,102259.22
2023-02-11T04:56:21.088Z,102257.25
2023-02-11T04:59:22.724Z,102261.50
2023-02-11T05:02:24.371Z,102263.78
2023-02-11T05:05:26.063Z,102258.91
2023-02-11T05:08:27.952Z,102258.78
2023-02-11T05:11:29.677Z,102264.84
2023-02-11T05:14:31.358Z,102260.13
2023-02-11T05:17:33.022Z,102267.19
2023-02-11T05:20:34.755Z,102275.06
2023-02-11T05:23:36.841Z,102275.28
2023-02-11T05:26:38.477Z,102281.37
2023-02-11T05:29:40.136Z,102278.63
2023-02-11T05:32:41.905Z,102278.63
2023-02-11T05:35:43.634Z,102274.59
2023-02-11T05:38:45.294Z,102276.41
2023-02-11T05:41:46.998Z,102287.50
2023-02-11T05:44:50.628Z,102281.72
2023-02-11T05:47:52.425Z,102283.41
2023-02-11T05:50:54.099Z,102284.16
2023-02-11T05:53:55.784Z,102285.97
2023-02-11T05:56:57.485Z,102290.31
2023-02-11T05:59:59.171Z,102291.44
2023-02-11T06:03:00.972Z,102290.44
2023-02-11T06:06:02.632Z,102287.78
2023-02-11T06:09:04.404Z,102278.59
2023-02-11T06:12:06.218Z,102285.84
2023-02-11T06:15:08.109Z,102283.91
2023-02-11T06:18:09.834Z,102282.34
2023-02-11T06:21:12.294Z,102276.31
2023-02-11T06:24:14.069Z,102281.81
2023-02-11T06:27:15.681Z,102263.06
2023-02-11T06:30:17.429Z,102263.59
2023-02-11T06:33:19.197Z,102264.94
2023-02-11T06:36:22.952Z,102268.09
2023-02-11T06:39:24.626Z,102271.56
2023-02-11T06:42:26.383Z,102274.00
2023-02-11T06:45:28.034Z,102269.47
2023-02-11T06:48:29.685Z,102265.62
2023-02-11T06:51:31.491Z,102261.44
2023-02-11T06:54:33.242Z,102254.16
2023-02-11T06:57:34.990Z,102248.69
2023-02-11T07:00:37.056Z,102253.59
2023-02-11T07:03:40.789Z,102248.69
2023-02-11T07:06:42.585Z,102249.75
2023-02-11T07:09:44.366Z,102244.47
2023-02-11T07:12:45.984Z,102237.37
2023-02-11T07:15:47.994Z,102238.12
2023-02-11T07:18:50.053Z,102236.31
2023-02-11T07:21:51.754Z,102226.97
2023-02-11T07:24:53.443Z,102220.31
2023-02-11T07:27:55.157Z,102222.81
2023-02-11T07:30:56.910Z,102233.13
2023-02-11T07:34:01.052Z,102229.84
2023-02-11T07:37:03.164Z,102226.50
2023-02-11T07:40:05.221Z,102219.53
2023-02-11T07:43:06.853Z,102225.88
2023-02-11T07:46:14.986Z,102226.84
2023-02-11T07:49:16.977Z,102231.00
2023-02-11T07:52:18.863Z,102231.56
2023-02-11T07:55:20.492Z,102221.38
2023-02-11T07:58:22.123Z,102226.31
2023-02-11T08:01:28.367Z,102218.47
2023-02-11T08:04:30.156Z,102208.59
2023-02-11T08:07:32.376Z,102213.44
2023-02-11T08:10:34.008Z,102217.94
2023-02-11T08:13:36.215Z,102215.69
2023-02-11T08:16:39.042Z,102213.22
2023-02-11T08:19:40.822Z,102218.09
2023-02-11T08:22:42.485Z,102222.00
2023-02-11T08:25:44.102Z,102211.47
2023-02-11T08:28:47.747Z,102207.78
2023-02-11T08:31:49.723Z,102217.56
2023-02-11T08:34:52.411Z,102218.28
2023-02-11T08:37:54.148Z,102211.94
2023-02-11T08:40:55.756Z,102205.69
2023-02-11T08:43:58.297Z,102197.69
2023-02-11T08:46:59.953Z,102204.00
2023-02-11T08:50:01.585Z,102202.72
2023-02-11T08:53:03.343Z,102204.19
2023-02-11T08:56:06.230Z,102199.97
2023-02-11T08:59:09.511Z,102189.66
2023-02-11T09:02:14.121Z,102192.25
2023-02-11T09:05:15.949Z,102192.41
2023-02-11T09:08:17.623Z,102197.75
2023-02-11T09:11:21.876Z,102191.94
2023-02-11T09:14:24.679Z,102174.16
2023-02-11T09:17:26.404Z,102188.66
2023-02-11T09:20:28.379Z,102189.34
2023-02-11T09:23:30.291Z,102180.47
2023-02-11T09:26:34.200Z,102184.88
2023-02-11T09:29:35.850Z,102187.38
2023-02-11T09:32:37.539Z,102187.69
2023-02-11T09:35:39.175Z,102182.56
2023-02-11T09:38:40.858Z,102180.94
2023-02-11T09:41:51.383Z,102177.34
2023-02-11T09:44:53.262Z,102172.09
2023-02-11T09:48:06.432Z,102174.44
2023-02-11T09:51:23.851Z,102162.75
2023-02-11T09:54:37.602Z,102164.47
2023-02-11T09:57:39.314Z,102163.50
2023-02-11T10:00:52.222Z,102152.94
2023-02-11T10:03:56.893Z,102141.59
2023-02-11T10:07:11.005Z,102145.78
2023-02-11T10:10:44.489Z,102150.41
2023-02-11T10:14:05.786Z,102143.44
2023-02-11T10:17:32.475Z,102134.41
2023-02-11T10:20:39.363Z,102137.84
2023-02-11T10:23:45.264Z,102136.41
2023-02-11T10:26:47.161Z,102122.56
2023-02-11T10:29:57.322Z,102129.97
2023-02-11T10:33:24.792Z,102118.88
2023-02-11T10:36:30.520Z,102109.19
2023-02-11T10:39:32.323Z,102110.59
2023-02-11T10:42:35.780Z,102104.94
2023-02-11T10:45:48.702Z,102097.69
2023-02-11T10:48:53.817Z,102098.03
2023-02-11T10:52:23.849Z,102092.78
2023-02-11T10:55:28.756Z,102075.34
2023-02-11T10:58:47.033Z,102065.78
2023-02-11T11:01:51.320Z,102062.97
2023-02-11T11:04:57.647Z,102063.03
2023-02-11T11:08:05.968Z,102063.13
2023-02-11T11:11:11.001Z,102054.03
2023-02-11T11:14:20.510Z,102051.84
2023-02-11T11:17:22.658Z,102049.91
2023-02-11T11:20:35.254Z,102051.47
2023-02-11T11:23:37.917Z,102052.62
2023-02-11T11:26:48.659Z,102057.34
2023-02-11T11:29:53.745Z,102043.59
2023-02-11T11:32:56.790Z,102042.06
2023-02-11T11:36:23.650Z,102045.78
2023-02-11T11:39:29.522Z,102036.87
2023-02-11T11:42:34.037Z,102035.91
2023-02-11T11:45:36.052Z,102012.72
2023-02-11T11:48:42.964Z,102016.06
2023-02-11T11:51:58.622Z,102009.06
2023-02-11T11:55:12.378Z,102006.25
2023-02-11T11:58:21.216Z,102004.34
2023-02-11T12:01:41.676Z,101995.38
2023-02-11T12:04:51.640Z,101988.09
2023-02-11T12:08:18.261Z,101982.84
2023-02-11T12:11:19.930Z,101982.37
2023-02-11T12:14:28.920Z,101967.97
2023-02-11T12:17:44.175Z,101956.25
2023-02-11T12:20:46.064Z,101954.22
2023-02-11T12:24:12.222Z,101947.34
2023-02-11T12:27:25.105Z,101941.09
2023-02-11T12:30:50.874Z,101919.75
2023-02-11T12:34:13.519Z,101912.91
2023-02-11T12:37:30.660Z,101929.56
2023-02-11T12:40:46.384Z,101941.00
2023-02-11T12:43:48.634Z,101917.47
2023-02-11T12:47:01.368Z,101909.03
2023-02-11T12:50:21.778Z,101909.78
2023-02-11T12:53:32.667Z,101897.03
2023-02-11T12:56:45.526Z,101875.94
2023-02-11T13:00:02.519Z,101865.81
2023-02-11T13:03:17.022Z,101864.06
2023-02-11T13:06:27.820Z,101884.87
2023-02-11T13:09:46.863Z,101881.72
2023-02-11T13:13:10.363Z,101883.59
2023-02-11T13:16:37.083Z,101872.72
2023-02-11T13:19:48.336Z,101869.81
2023-02-11T13:23:12.266Z,101865.59
2023-02-11T13:26:24.990Z,101873.84
2023-02-11T13:29:56.753Z,101862.12
2023-02-11T13:33:01.070Z,101861.50
2023-02-11T13:36:04.736Z,101865.13
2023-02-11T13:39:07.211Z,101862.91
2023-02-11T13:42:16.555Z,101866.16
2023-02-11T13:45:46.347Z,101863.69
2023-02-11T13:48:52.702Z,101857.63
2023-02-11T13:51:56.314Z,101843.09
2023-02-11T13:55:15.259Z,101824.06
2023-02-11T13:58:46.474Z,101822.38
2023-02-11T14:02:14.433Z,101806.84
2023-02-11T14:05:34.802Z,101808.44
2023-02-11T14:08:55.362Z,101801.81
2023-02-11T14:12:31.132Z,101808.53
2023-02-11T14:15:41.469Z,101806.09
2023-02-11T14:18:49.233Z,101813.72
2023-02-11T14:21:51.107Z,101816.81
2023-02-11T14:25:00.993Z,101812.69
2023-02-11T14:28:24.408Z,101823.81
2023-02-11T14:31:41.508Z,101830.94
2023-02-11T14:35:27.788Z,101834.63
2023-02-11T14:38:41.045Z,101809.87
2023-02-11T14:41:46.344Z,101797.25
2023-02-11T14:44:50.906Z,101790.19
2023-02-11T14:48:23.289Z,101788.09
2023-02-11T14:51:31.334Z,101783.75
2023-02-11T14:54:35.404Z,101776.03
2023-02-11T14:57:38.266Z,101782.03
2023-02-11T15:01:21.461Z,101781.69
2023-02-11T15:04:28.082Z,101801.69
2023-02-11T15:07:30.455Z,101810.00
2023-02-11T15:10:37.945Z,101814.09
2023-02-11T15:13:47.549Z,101812.53
2023-02-11T15:16:51.350Z,101806.69
2023-02-11T15:20:01.100Z,101792.91
2023-02-11T15:23:07.566Z,101790.38
2023-02-11T15:26:23.320Z,101770.16
2023-02-11T15:29:34.958Z,101760.44
2023-02-11T15:32:41.614Z,101757.59
2023-02-11T15:35:45.026Z,101763.34
2023-02-11T15:39:07.519Z,101760.00
2023-02-11T15:42:27.239Z,101761.19
2023-02-11T15:45:37.565Z,101763.28
2023-02-11T15:48:54.174Z,101754.34
2023-02-11T15:51:58.446Z,101761.97
2023-02-11T15:55:03.251Z,101747.38
2023-02-11T15:58:05.892Z,101748.19
2023-02-11T16:01:11.768Z,101754.75
2023-02-11T16:04:22.244Z,101751.16
2023-02-11T16:07:41.664Z,101756.22
2023-02-11T16:10:58.818Z,101747.34
2023-02-11T16:14:05.153Z,101743.72
2023-02-11T16:17:24.296Z,101729.69
2023-02-11T16:20:27.172Z,101721.66
2023-02-11T16:23:37.229Z,101717.56
2023-02-11T16:26:45.725Z,101717.31
2023-02-11T16:29:49.883Z,101711.91
2023-02-11T16:32:53.912Z,101708.03
2023-02-11T16:35:56.887Z,101710.50
2023-02-11T16:38:59.404Z,101711.94
2023-02-11T16:42:06.421Z,101702.50
2023-02-11T16:45:10.625Z,101710.47
2023-02-11T16:48:19.786Z,101721.31
2023-02-11T16:51:22.685Z,101712.03
2023-02-11T16:54:25.457Z,101717.44
2023-02-11T16:57:30.207Z,101706.22
2023-02-11T17:00:34.069Z,101714.22
2023-02-11T17:03:40.977Z,101707.53
2023-02-11T17:06:43.580Z,101723.75
2023-02-11T17:09:45.898Z,101711.37
2023-02-11T17:12:50.056Z,101704.06
2023-02-11T17:15:54.251Z,101700.81
2023-02-11T17:18:58.847Z,101705.47
2023-02-11T17:22:01.614Z,101707.28
2023-02-11T17:25:04.355Z,101721.16
2023-02-11T17:28:08.394Z,101723.34
2023-02-11T17:31:11.381Z,101727.06
2023-02-11T17:34:14.102Z,101734.44
2023-02-11T17:37:16.651Z,101738.25
2023-02-11T17:40:24.485Z,101738.75
2023-02-11T17:43:27.871Z,101733.50
2023-02-11T17:46:30.881Z,101725.78
2023-02-11T17:49:33.280Z,101737.47
2023-02-11T17:52:37.400Z,101730.25
2023-02-11T17:55:40.307Z,101731.69
2023-02-11T17:58:43.972Z,101724.47
2023-02-11T18:01:46.968Z,101729.56
2023-02-11T18:04:50.093Z,101730.56
2023-02-11T18:07:52.751Z,101714.75
2023-02-11T18:10:56.041Z,101712.03
2023-02-11T18:14:07.884Z,101695.16
2023-02-11T18:17:10.741Z,101704.81
2023-02-11T18:20:13.787Z,101700.97
2023-02-11T18:23:16.874Z,101693.34
2023-02-11T18:26:22.863Z,101676.72
2023-02-11T18:29:26.157Z,101676.47
2023-02-11T18:32:29.084Z,101684.84
2023-02-11T18:35:32.479Z,101687.16
2023-02-11T18:38:35.689Z,101683.94
2023-02-11T18:41:42.855Z,101673.63
2023-02-11T18:44:45.113Z,101680.59
2023-02-11T18:47:47.723Z,101677.13
2023-02-11T18:50:50.596Z,101675.56
2023-02-11T18:53:53.518Z,101677.13
2023-02-11T18:56:56.447Z,101675.06
2023-02-11T19:00:00.954Z,101670.81
2023-02-11T19:03:03.477Z,101671.97
2023-02-11T19:06:06.388Z,101669.25
2023-02-11T19:09:11.836Z,101670.28
2023-02-11T19:12:15.121Z,101661.91
2023-02-11T19:15:18.698Z,101661.00
2023-02-11T19:18:24.613Z,101663.56
2023-02-11T19:21:27.322Z,101666.28
2023-02-11T19:24:30.807Z,101657.69
2023-02-11T19:27:37.330Z,101660.00
2023-02-11T19:30:39.944Z,101665.25
2023-02-11T19:33:43.948Z,101663.47
2023-02-11T19:36:52.323Z,101670.41
2023-02-11T19:39:55.236Z,101672.47
2023-02-11T19:42:57.944Z,101673.25
2023-02-11T19:46:05.961Z,101673.78
2023-02-11T19:49:10.482Z,101667.34
2023-02-11T19:52:13.007Z,101675.97
2023-02-11T19:55:15.875Z,101675.19
2023-02-11T19:58:21.185Z,101663.09
2023-02-11T20:01:25.975Z,101667.34
2023-02-11T20:04:32.609Z,101659.22
2023-02-11T20:07:39.054Z,101657.03
2023-02-11T20:10:44.191Z,101657.19
2023-02-11T20:13:46.685Z,101653.03
2023-02-11T20:16:52.292Z,101645.06
2023-02-11T20:19:56.081Z,101654.69
2023-02-11T20:23:02.203Z,101648.13
2023-02-11T20:26:14.076Z,101655.97
2023-02-11T20:29:18.295Z,101657.69
2023-02-11T20:32:22.413Z,101654.69
2023-02-11T20:35:25.396Z,101661.16
2023-02-11T20:38:47.562Z,101656.53
2023-02-11T20:41:51.522Z,101645.56
2023-02-11T20:44:54.449Z,101647.47
2023-02-11T20:47:57.795Z,101643.50
2023-02-11T20:51:14.753Z,101647.50
2023-02-11T20:54:22.452Z,101640.41
2023-02-11T20:57:26.562Z,101637.84
2023-02-11T21:00:28.997Z,101634.25
2023-02-11T21:03:34.335Z,101624.84
2023-02-11T21:06:46.028Z,101619.47
2023-02-11T21:09:48.983Z,101632.59
2023-02-11T21:12:52.019Z,101616.87
2023-02-11T21:15:57.898Z,101610.03
2023-02-11T21:19:01.677Z,101609.78
2023-02-11T21:22:04.708Z,101623.44
2023-02-11T21:25:09.068Z,101615.53
2023-02-11T21:28:11.292Z,101613.47
2023-02-11T21:31:32.877Z,101618.38
2023-02-11T21:34:37.649Z,101621.88
2023-02-11T21:37:41.108Z,101622.38
2023-02-11T21:40:43.468Z,101624.41
2023-02-11T21:43:46.164Z,101626.22
2023-02-11T21:46:48.355Z,101618.66
2023-02-11T21:49:50.594Z,101617.19
2023-02-11T21:52:52.491Z,101600.34
2023-02-11T21:56:04.434Z,101601.34
2023-02-11T21:59:07.148Z,101583.72
2023-02-11T22:02:11.318Z,101587.31
2023-02-11T22:05:13.881Z,101583.44
2023-02-11T22:08:17.530Z,101578.72
2023-02-11T22:11:20.984Z,101589.91
2023-02-11T22:14:22.800Z,101598.28
2023-02-11T22:17:24.954Z,101610.09
2023-02-11T22:20:26.744Z,101614.91
2023-02-11T22:23:29.055Z,101605.88
2023-02-11T22:26:30.838Z,101612.16
2023-02-11T22:29:32.644Z,101630.03
2023-02-11T22:32:34.322Z,101632.47
2023-02-11T22:35:35.946Z,101644.47
2023-02-11T22:38:37.621Z,101642.50
2023-02-11T22:41:41.858Z,101641.75
2023-02-11T22:44:43.527Z,101637.37
2023-02-11T22:47:45.159Z,101635.28
2023-02-11T22:50:46.774Z,101639.06
2023-02-11T22:54:15.962Z,101631.25
2023-02-11T22:57:17.612Z,101632.88
2023-02-11T23:00:20.852Z,101637.16
2023-02-11T23:03:22.616Z,101644.28
2023-02-11T23:06:24.424Z,101640.13
2023-02-11T23:09:26.105Z,101634.81
2023-02-11T23:12:27.780Z,101640.88
2023-02-11T23:15:29.555Z,101635.59
2023-02-11T23:18:31.595Z,101623.56
2023-02-11T23:21:35.396Z,101625.97
2023-02-11T23:24:37.093Z,101628.41
2023-02-11T23:27:38.788Z,101625.00
2023-02-11T23:30:41.532Z,101638.53
2023-02-11T23:33:43.306Z,101637.50
2023-02-11T23:36:45.057Z,101631.59
2023-02-11T23:39:46.769Z,101629.66
2023-02-11T23:42:49.157Z,101624.53
2023-02-11T23:45:52.341Z,101630.81
2023-02-11T23:48:54.363Z,101638.22
2023-02-11T23:51:56.402Z,101641.22
2023-02-11T23:54:58.133Z,101641.38
2023-02-11T23:57:59.849Z,101641.03
